Time;durP1;ratioP1;P1;durP2;ratioP2;P2;SDS_P1;SDS_P2;PMS_P1;PMS_P2;Temp;Humidity;BMP_temperature;BMP_pressure;BME280_temperature;BME280_humidity;BME280_pressure;Samples;Min_cycle;Max_cycle;Signal;HPM_P1;HPM_P2
2021/12/26 00:00:28;;;;;;;63.25;50.70;;;25.80;99.90;;;;;;5053510;28;20162;-72
2021/12/26 00:02:55;;;;;;;61.63;43.92;;;25.90;99.90;;;;;;5053441;28;20044;-71
2021/12/26 00:05:23;;;;;;;45.67;35.25;;;25.80;99.90;;;;;;5053128;28;20051;-73
2021/12/26 00:07:51;;;;;;;48.75;41.25;;;25.80;99.90;;;;;;5052884;28;20025;-71
2021/12/26 00:10:23;;;;;;;45.78;34.70;;;25.90;99.90;;;;;;5053578;28;20029;-72
2021/12/26 00:12:50;;;;;;;46.08;32.20;;;25.90;99.90;;;;;;5053584;28;20075;-71
2021/12/26 00:15:19;;;;;;;46.50;27.40;;;26.00;99.90;;;;;;5053534;28;20025;-72
2021/12/26 00:17:46;;;;;;;36.13;23.65;;;25.90;99.90;;;;;;5052572;28;20111;-73
2021/12/26 00:20:13;;;;;;;35.03;24.60;;;25.90;99.90;;;;;;5053459;28;20105;-71
2021/12/26 00:22:40;;;;;;;33.90;24.25;;;25.80;99.90;;;;;;5053058;28;20029;-72
2021/12/26 00:25:08;;;;;;;36.35;23.92;;;25.80;99.90;;;;;;5053154;28;20033;-71
2021/12/26 00:27:35;;;;;;;45.88;23.83;;;25.80;99.90;;;;;;5052735;28;20025;-71
2021/12/26 00:30:05;;;;;;;37.00;25.98;;;25.80;99.90;;;;;;5052735;28;20029;-72
2021/12/26 00:32:31;;;;;;;36.95;25.13;;;25.80;99.90;;;;;;5032794;28;20088;-74
2021/12/26 00:34:58;;;;;;;47.60;27.85;;;25.80;99.90;;;;;;5047024;28;20386;-71
2021/12/26 00:37:25;;;;;;;38.33;25.05;;;25.90;99.90;;;;;;5052832;28;20017;-70
2021/12/26 00:39:51;;;;;;;41.90;27.00;;;26.00;99.90;;;;;;5052971;28;20029;-71
2021/12/26 00:42:18;;;;;;;39.67;24.70;;;26.00;99.90;;;;;;5053235;28;20082;-71
2021/12/26 00:44:45;;;;;;;39.58;25.15;;;26.00;99.90;;;;;;5056721;28;20025;-70
2021/12/26 00:47:12;;;;;;;46.97;26.75;;;26.00;99.90;;;;;;5047785;28;20538;-72
2021/12/26 00:49:40;;;;;;;37.85;27.13;;;26.10;99.90;;;;;;5036733;28;20172;-70
2021/12/26 00:52:08;;;;;;;38.80;26.95;;;26.10;99.90;;;;;;5036936;28;20059;-69
2021/12/26 00:54:36;;;;;;;31.85;22.70;;;26.20;99.90;;;;;;5047864;28;20013;-68
2021/12/26 00:57:05;;;;;;;34.10;24.00;;;26.30;99.90;;;;;;5055866;28;20021;-69
2021/12/26 00:59:31;;;;;;;29.70;19.45;;;26.30;99.90;;;;;;5056818;28;20032;-71
2021/12/26 01:01:58;;;;;;;30.23;20.60;;;26.30;99.90;;;;;;5054276;28;20025;-70
2021/12/26 01:04:25;;;;;;;30.52;19.95;;;26.40;99.90;;;;;;5055184;28;20513;-70
2021/12/26 01:06:52;;;;;;;85.43;63.03;;;26.50;99.90;;;;;;5056684;28;20441;-71
2021/12/26 01:09:24;;;;;;;51.65;22.10;;;26.50;99.90;;;;;;5056820;28;20494;-70
2021/12/26 01:11:55;;;;;;;30.02;18.63;;;26.60;99.90;;;;;;5056776;28;20430;-69
2021/12/26 01:14:28;;;;;;;36.08;20.08;;;26.60;99.90;;;;;;5053532;28;20108;-70
2021/12/26 01:17:07;;;;;;;37.88;19.73;;;26.60;99.90;;;;;;5056187;28;20033;-70
2021/12/26 01:19:43;;;;;;;34.33;18.48;;;26.70;99.90;;;;;;5055583;28;20044;-69
2021/12/26 01:22:10;;;;;;;33.28;16.45;;;26.70;99.90;;;;;;5044219;28;20044;-69
2021/12/26 01:24:37;;;;;;;24.90;16.33;;;26.70;99.90;;;;;;5044625;28;20025;-70
2021/12/26 01:27:04;;;;;;;27.50;17.88;;;26.60;99.90;;;;;;5056694;28;20116;-67
2021/12/26 01:29:31;;;;;;;27.40;17.67;;;26.60;99.90;;;;;;5047976;28;20052;-70
2021/12/26 01:31:58;;;;;;;32.72;19.45;;;26.80;99.90;;;;;;5054421;28;20036;-71
2021/12/26 01:34:24;;;;;;;31.88;20.00;;;27.00;99.90;;;;;;5048211;28;20391;-68
2021/12/26 01:36:51;;;;;;;30.05;16.65;;;27.00;99.90;;;;;;5049451;28;20110;-68
2021/12/26 01:39:18;;;;;;;25.40;17.95;;;27.00;99.90;;;;;;5055515;28;20029;-69
2021/12/26 01:41:45;;;;;;;29.30;18.45;;;27.10;99.90;;;;;;5048871;28;20032;-68
2021/12/26 01:44:14;;;;;;;34.20;18.27;;;27.10;99.90;;;;;;5051870;28;20113;-69
2021/12/26 01:46:44;;;;;;;24.40;17.60;;;27.10;99.90;;;;;;5048678;28;20026;-69
2021/12/26 01:49:20;;;;;;;26.92;17.60;;;27.30;99.90;;;;;;5047013;28;20513;-68
2021/12/26 01:51:50;;;;;;;25.08;17.52;;;27.30;99.90;;;;;;5044898;28;20037;-68
2021/12/26 01:54:45;;;;;;;23.85;16.85;;;27.40;99.90;;;;;;5045448;28;20049;-68
2021/12/26 01:57:10;;;;;;;30.85;19.55;;;27.50;99.90;;;;;;5041028;28;20083;-70
2021/12/26 01:59:39;;;;;;;30.20;20.10;;;27.60;99.90;;;;;;5045005;28;20075;-69
2021/12/26 02:02:06;;;;;;;34.70;21.40;;;27.60;99.90;;;;;;5044302;28;20088;-70
2021/12/26 02:04:36;;;;;;;36.15;23.88;;;27.50;99.90;;;;;;5047165;28;20072;-69
2021/12/26 02:07:04;;;;;;;36.35;26.75;;;27.50;99.90;;;;;;5046361;28;20029;-70
2021/12/26 02:09:31;;;;;;;37.85;28.25;;;27.50;99.90;;;;;;5046123;28;20013;-71
2021/12/26 02:11:58;;;;;;;54.45;38.90;;;27.60;99.90;;;;;;5045061;28;20104;-69
2021/12/26 02:14:25;;;;;;;51.88;43.90;;;27.60;99.90;;;;;;5050806;28;20021;-68
2021/12/26 02:16:51;;;;;;;55.40;45.55;;;27.60;99.90;;;;;;5046886;28;20045;-69
2021/12/26 02:19:18;;;;;;;54.42;43.22;;;27.70;99.90;;;;;;5048056;28;20104;-69
2021/12/26 02:24:34;;;;;;;49.30;40.58;;;28.00;99.90;;;;;;5048906;28;20052;-69
2021/12/26 02:29:39;;;;;;;46.20;36.25;;;28.20;99.90;;;;;;5049858;28;20029;-70
2021/12/26 02:32:07;;;;;;;52.28;42.08;;;28.30;99.90;;;;;;5050107;28;20108;-68
2021/12/26 02:34:34;;;;;;;51.92;42.35;;;28.20;99.90;;;;;;5050172;28;20054;-69
2021/12/26 02:37:02;;;;;;;45.85;33.58;;;28.20;99.90;;;;;;5041073;28;20483;-69
2021/12/26 02:39:31;;;;;;;35.58;31.23;;;28.20;99.90;;;;;;5042238;28;20018;-70
2021/12/26 02:41:59;;;;;;;36.67;27.65;;;28.30;99.90;;;;;;5044005;28;20021;-73
2021/12/26 02:44:25;;;;;;;28.90;20.98;;;28.40;99.90;;;;;;5042133;28;20029;-71
2021/12/26 02:46:52;;;;;;;27.10;19.70;;;28.60;99.90;;;;;;5046505;28;20087;-68
2021/12/26 02:49:24;;;;;;;22.63;18.13;;;28.60;99.90;;;;;;5043714;28;20056;-70
2021/12/26 02:51:52;;;;;;;23.35;18.95;;;28.70;99.90;;;;;;5039999;28;20064;-69
2021/12/26 02:54:19;;;;;;;23.13;18.45;;;28.80;99.90;;;;;;5044385;28;20025;-72
2021/12/26 02:56:46;;;;;;;24.98;18.95;;;28.70;99.90;;;;;;5039868;28;20025;-71
2021/12/26 02:59:12;;;;;;;25.13;17.80;;;28.80;99.90;;;;;;5052388;28;20025;-71
2021/12/26 03:01:39;;;;;;;19.55;16.25;;;28.70;99.90;;;;;;5044037;28;20029;-69
2021/12/26 03:04:08;;;;;;;20.45;14.82;;;28.70;99.90;;;;;;5036175;28;20042;-69
2021/12/26 03:06:58;;;;;;;24.38;15.98;;;28.60;99.90;;;;;;5044486;28;20067;-69
2021/12/26 03:09:22;;;;;;;25.77;17.70;;;28.60;99.90;;;;;;5043665;28;20028;-73
2021/12/26 03:11:50;;;;;;;23.05;17.08;;;28.60;99.90;;;;;;5043853;28;20025;-70
2021/12/26 03:14:17;;;;;;;23.23;17.45;;;28.60;99.90;;;;;;5043407;28;20060;-70
2021/12/26 03:16:51;;;;;;;26.23;20.17;;;28.70;99.90;;;;;;5047204;28;20037;-70
2021/12/26 03:19:18;;;;;;;27.45;20.33;;;28.70;99.90;;;;;;5050691;28;20025;-71
2021/12/26 03:21:49;;;;;;;25.83;18.98;;;28.70;99.90;;;;;;5053037;28;20059;-71
2021/12/26 03:24:15;;;;;;;30.13;19.17;;;28.60;99.90;;;;;;5045339;28;20025;-69
2021/12/26 03:26:42;;;;;;;31.23;20.50;;;28.50;99.90;;;;;;5034117;28;20070;-69
2021/12/26 03:29:09;;;;;;;22.10;15.73;;;28.50;99.90;;;;;;5034053;28;20033;-69
2021/12/26 03:31:35;;;;;;;26.35;16.83;;;28.50;99.90;;;;;;5033714;28;20032;-69
2021/12/26 03:34:03;;;;;;;21.45;13.88;;;28.50;99.90;;;;;;5038201;28;20068;-68
2021/12/26 03:36:30;;;;;;;16.95;14.27;;;28.50;99.90;;;;;;5044327;28;20029;-68
2021/12/26 03:38:56;;;;;;;22.88;16.70;;;28.60;99.90;;;;;;5047380;28;20018;-68
2021/12/26 03:41:23;;;;;;;22.38;16.58;;;28.70;99.90;;;;;;5047221;28;20009;-68
2021/12/26 03:43:50;;;;;;;20.90;14.73;;;28.70;99.90;;;;;;5047532;28;20475;-68
2021/12/26 03:46:17;;;;;;;21.40;15.07;;;28.70;99.90;;;;;;5047292;28;20029;-68
2021/12/26 03:48:44;;;;;;;22.15;12.90;;;28.80;99.90;;;;;;5047321;28;20471;-67
2021/12/26 03:51:10;;;;;;;14.93;11.02;;;28.90;99.90;;;;;;5047436;28;20505;-68
2021/12/26 03:53:37;;;;;;;14.77;12.30;;;29.10;99.90;;;;;;5046950;28;20017;-68
2021/12/26 03:56:04;;;;;;;22.60;13.90;;;29.10;99.90;;;;;;5040353;28;20490;-68
2021/12/26 03:58:31;;;;;;;23.90;16.55;;;29.10;99.90;;;;;;5050650;28;20052;-68
2021/12/26 04:00:57;;;;;;;26.33;19.27;;;28.90;99.90;;;;;;5051793;28;20021;-67
2021/12/26 04:03:24;;;;;;;33.15;20.63;;;28.70;99.90;;;;;;5048704;28;20040;-68
2021/12/26 04:05:51;;;;;;;25.80;20.48;;;28.60;99.90;;;;;;5044513;28;20032;-68
2021/12/26 04:08:18;;;;;;;29.25;21.70;;;28.50;99.90;;;;;;5046499;28;20033;-67
2021/12/26 04:10:44;;;;;;;28.25;19.75;;;28.50;99.90;;;;;;5042752;28;20128;-67
2021/12/26 04:13:12;;;;;;;32.88;22.52;;;28.60;99.90;;;;;;5042136;28;20021;-67
2021/12/26 04:15:39;;;;;;;41.67;26.88;;;28.60;99.90;;;;;;5043725;28;20020;-66
2021/12/26 04:18:05;;;;;;;33.55;22.90;;;28.70;99.90;;;;;;5043056;28;20029;-67
2021/12/26 04:20:32;;;;;;;34.22;23.13;;;28.80;99.90;;;;;;5042122;28;20080;-66
2021/12/26 04:22:59;;;;;;;28.90;21.10;;;28.90;99.90;;;;;;5043602;28;20044;-67
2021/12/26 04:25:27;;;;;;;20.27;14.77;;;29.10;99.90;;;;;;5042856;28;20102;-67
2021/12/26 04:27:54;;;;;;;17.85;13.57;;;29.30;99.90;;;;;;5050472;28;20031;-68
2021/12/26 04:30:22;;;;;;;18.60;13.48;;;29.30;99.90;;;;;;5052731;28;20470;-68
2021/12/26 04:32:49;;;;;;;21.95;15.23;;;29.30;99.90;;;;;;5052627;28;20505;-67
2021/12/26 04:35:17;;;;;;;20.77;14.40;;;29.10;99.90;;;;;;5046513;28;20033;-68
2021/12/26 04:37:44;;;;;;;19.38;13.35;;;29.00;99.90;;;;;;5049163;28;20082;-68
2021/12/26 04:40:13;;;;;;;18.40;13.55;;;29.00;99.90;;;;;;5051379;28;20475;-68
2021/12/26 04:42:44;;;;;;;18.35;13.35;;;29.00;99.90;;;;;;5052279;28;20033;-67
2021/12/26 04:45:11;;;;;;;19.60;12.60;;;29.10;99.90;;;;;;5048249;28;20128;-67
2021/12/26 04:47:39;;;;;;;20.63;14.40;;;29.30;99.90;;;;;;5044604;28;20044;-67
2021/12/26 04:50:11;;;;;;;18.90;13.88;;;29.40;99.90;;;;;;5050500;28;20033;-67
2021/12/26 04:52:40;;;;;;;17.02;11.95;;;29.50;99.90;;;;;;5045261;28;20044;-68
2021/12/26 04:55:08;;;;;;;17.55;14.30;;;29.60;99.90;;;;;;5037540;28;20068;-67
2021/12/26 04:57:35;;;;;;;23.85;13.98;;;30.10;99.90;;;;;;5036856;28;20017;-67
2021/12/26 05:00:05;;;;;;;19.83;13.20;;;30.20;99.90;;;;;;5037915;28;20098;-68
2021/12/26 05:02:35;;;;;;;30.20;16.73;;;29.90;99.90;;;;;;5036162;28;20037;-69
2021/12/26 05:05:04;;;;;;;34.95;16.23;;;29.20;99.90;;;;;;5045599;28;20490;-69
2021/12/26 05:07:30;;;;;;;36.88;16.42;;;28.70;99.90;;;;;;5041275;28;20498;-67
2021/12/26 05:09:57;;;;;;;24.90;14.60;;;28.30;99.90;;;;;;5049774;28;20111;-66
2021/12/26 05:12:24;;;;;;;21.98;15.10;;;28.20;99.90;;;;;;5046401;28;20044;-67
2021/12/26 05:14:52;;;;;;;25.95;17.55;;;28.10;99.90;;;;;;5051747;28;20057;-67
2021/12/26 05:17:19;;;;;;;21.02;14.45;;;28.10;99.90;;;;;;5051841;28;20025;-68
2021/12/26 05:19:45;;;;;;;17.08;13.07;;;28.10;99.90;;;;;;5049918;28;20025;-68
2021/12/26 05:22:12;;;;;;;23.95;15.48;;;28.10;99.90;;;;;;5044768;28;20029;-69
2021/12/26 05:24:39;;;;;;;21.08;13.80;;;28.00;99.90;;;;;;5040474;28;20026;-68
2021/12/26 05:27:06;;;;;;;18.40;12.82;;;28.00;99.90;;;;;;5040506;28;20029;-69
2021/12/26 05:29:33;;;;;;;17.92;12.23;;;27.80;99.90;;;;;;5043247;28;20029;-68
2021/12/26 05:31:59;;;;;;;19.23;13.30;;;28.00;99.90;;;;;;5046135;28;20499;-69
2021/12/26 05:34:26;;;;;;;26.30;14.68;;;28.00;99.90;;;;;;5045934;28;20463;-68
2021/12/26 05:36:53;;;;;;;17.77;14.07;;;28.00;99.90;;;;;;5045885;28;20021;-68
2021/12/26 05:39:19;;;;;;;20.83;14.57;;;28.00;99.90;;;;;;5044278;28;20029;-69
2021/12/26 05:41:47;;;;;;;19.77;14.32;;;28.10;99.90;;;;;;5045306;28;20021;-67
2021/12/26 05:44:14;;;;;;;21.73;12.07;;;28.10;99.90;;;;;;5044761;28;20045;-68
2021/12/26 05:46:41;;;;;;;25.30;14.00;;;28.10;99.90;;;;;;5043346;28;20079;-67
2021/12/26 05:49:08;;;;;;;26.85;14.73;;;28.20;99.90;;;;;;5044425;28;20032;-69
2021/12/26 05:51:35;;;;;;;20.00;13.48;;;28.30;99.90;;;;;;5045474;28;20616;-70
2021/12/26 05:54:02;;;;;;;21.92;13.75;;;28.40;99.90;;;;;;5043541;28;20052;-68
2021/12/26 05:56:28;;;;;;;21.30;12.77;;;28.50;99.90;;;;;;5045310;28;20092;-69
2021/12/26 05:58:55;;;;;;;28.45;14.00;;;28.50;99.90;;;;;;5046512;28;20029;-70
2021/12/26 06:01:22;;;;;;;21.73;13.27;;;28.60;99.90;;;;;;5044727;28;20028;-69
2021/12/26 06:03:48;;;;;;;23.42;14.50;;;28.60;99.90;;;;;;5045258;28;20035;-71
2021/12/26 06:06:15;;;;;;;19.98;15.05;;;28.60;99.90;;;;;;5046059;28;20025;-68
2021/12/26 06:08:42;;;;;;;21.33;15.68;;;28.60;99.90;;;;;;5044249;28;20537;-71
2021/12/26 06:11:09;;;;;;;28.05;15.82;;;28.70;99.90;;;;;;5045381;28;20037;-69
2021/12/26 06:13:35;;;;;;;25.25;15.02;;;28.80;99.90;;;;;;5043401;28;20079;-69
2021/12/26 06:16:02;;;;;;;26.08;16.17;;;28.90;99.90;;;;;;5046956;28;20029;-70
2021/12/26 06:18:29;;;;;;;29.08;14.40;;;29.10;99.90;;;;;;5044859;28;20114;-69
2021/12/26 06:20:55;;;;;;;20.83;13.20;;;29.20;99.90;;;;;;5045738;28;20464;-68
2021/12/26 06:23:22;;;;;;;21.60;13.38;;;29.30;99.90;;;;;;5044193;28;20475;-69
2021/12/26 06:25:48;;;;;;;22.60;13.60;;;29.30;99.90;;;;;;5044931;28;20328;-68
2021/12/26 06:28:15;;;;;;;17.58;12.93;;;29.40;99.90;;;;;;5045847;28;20026;-69
2021/12/26 06:30:42;;;;;;;23.90;14.00;;;29.40;99.90;;;;;;5043912;28;20021;-69
2021/12/26 06:33:08;;;;;;;16.45;12.60;;;29.50;99.90;;;;;;5044847;28;20029;-69
2021/12/26 06:35:35;;;;;;;21.48;15.38;;;29.60;99.90;;;;;;5045490;28;20439;-69
2021/12/26 06:38:02;;;;;;;19.38;12.93;;;29.60;99.90;;;;;;5045868;28;20100;-69
2021/12/26 06:40:29;;;;;;;23.50;14.38;;;29.60;99.90;;;;;;5044278;28;20132;-69
2021/12/26 06:42:56;;;;;;;20.85;13.00;;;29.60;99.90;;;;;;5043372;28;20144;-69
2021/12/26 06:45:22;;;;;;;18.02;12.90;;;29.60;99.90;;;;;;5046122;28;20029;-68
2021/12/26 06:47:51;;;;;;;18.67;12.48;;;29.70;99.90;;;;;;5044259;28;20368;-68
2021/12/26 06:50:20;;;;;;;16.83;12.57;;;29.70;99.90;;;;;;5045211;28;20379;-68
2021/12/26 06:52:48;;;;;;;18.10;12.48;;;29.70;99.90;;;;;;5042497;28;20405;-68
2021/12/26 06:55:15;;;;;;;17.73;13.40;;;29.70;99.90;;;;;;5054132;28;20464;-68
2021/12/26 06:57:43;;;;;;;18.52;12.52;;;29.70;99.90;;;;;;5054160;28;20383;-69
2021/12/26 07:00:13;;;;;;;15.25;11.93;;;29.70;99.90;;;;;;5044217;28;20402;-69
2021/12/26 07:02:40;;;;;;;22.83;12.90;;;29.80;99.90;;;;;;5045441;28;20028;-69
2021/12/26 07:05:07;;;;;;;18.35;11.95;;;29.70;99.90;;;;;;5043980;28;20035;-69
2021/12/26 07:07:34;;;;;;;23.90;13.05;;;29.70;99.90;;;;;;5046134;28;20025;-69
2021/12/26 07:10:01;;;;;;;16.95;12.32;;;29.80;99.90;;;;;;5042894;28;20029;-69
2021/12/26 07:12:27;;;;;;;19.17;13.73;;;29.70;99.90;;;;;;5044159;28;20353;-69
2021/12/26 07:14:54;;;;;;;19.55;13.32;;;29.80;99.90;;;;;;5044663;28;20013;-69
2021/12/26 07:17:21;;;;;;;17.67;13.32;;;29.80;99.90;;;;;;5044794;28;20017;-69
2021/12/26 07:19:47;;;;;;;21.55;13.77;;;30.00;99.90;;;;;;5043472;28;20416;-69
2021/12/26 07:22:14;;;;;;;18.85;14.23;;;30.00;99.90;;;;;;5042890;28;20502;-69
2021/12/26 07:24:43;;;;;;;23.45;14.93;;;30.10;99.90;;;;;;5044868;28;20029;-69
2021/12/26 07:27:14;;;;;;;22.60;15.40;;;30.10;99.90;;;;;;5044224;28;20047;-68
2021/12/26 07:29:42;;;;;;;18.33;12.10;;;30.10;99.90;;;;;;5048595;28;20029;-69
2021/12/26 07:32:10;;;;;;;20.52;13.02;;;30.10;99.90;;;;;;5043829;28;20029;-69
2021/12/26 07:34:38;;;;;;;14.57;11.32;;;30.10;99.90;;;;;;5044424;28;20033;-69
2021/12/26 07:37:05;;;;;;;18.17;12.38;;;30.00;99.90;;;;;;5043187;28;20053;-69
2021/12/26 07:39:31;;;;;;;15.75;11.70;;;30.10;99.90;;;;;;5043073;28;20028;-69
2021/12/26 07:41:58;;;;;;;16.83;11.32;;;30.20;99.90;;;;;;5041861;28;20490;-68
2021/12/26 07:44:25;;;;;;;17.75;11.20;;;30.50;99.90;;;;;;5038500;28;20029;-69
2021/12/26 07:46:53;;;;;;;15.40;9.68;;;30.70;99.90;;;;;;5044347;28;20059;-69
2021/12/26 07:49:21;;;;;;;14.90;10.15;;;30.60;99.90;;;;;;5045165;28;20113;-69
2021/12/26 07:51:49;;;;;;;16.90;11.05;;;30.40;99.90;;;;;;5044328;28;20563;-69
2021/12/26 07:54:17;;;;;;;16.17;11.05;;;30.40;99.90;;;;;;5041837;28;20068;-69
2021/12/26 07:56:44;;;;;;;14.20;9.93;;;30.40;99.90;;;;;;5043280;28;20425;-69
2021/12/26 07:59:11;;;;;;;20.17;11.30;;;30.40;99.90;;;;;;5043784;28;20041;-68
2021/12/26 08:01:38;;;;;;;14.40;10.63;;;30.40;99.90;;;;;;5045257;28;20025;-68
2021/12/26 08:04:05;;;;;;;17.70;10.63;;;30.60;99.90;;;;;;5043331;28;20033;-69
2021/12/26 08:06:32;;;;;;;15.43;10.32;;;30.80;99.90;;;;;;5043839;28;20521;-69
2021/12/26 08:08:59;;;;;;;13.40;8.65;;;30.80;99.90;;;;;;5044411;28;20475;-69
2021/12/26 08:11:25;;;;;;;17.27;8.85;;;30.70;99.90;;;;;;5042972;28;20028;-68
2021/12/26 08:13:52;;;;;;;15.90;9.85;;;30.70;99.90;;;;;;5043951;28;20026;-69
2021/12/26 08:16:19;;;;;;;24.52;10.15;;;30.60;99.90;;;;;;5044208;28;20021;-68
2021/12/26 08:18:46;;;;;;;14.90;10.52;;;30.50;99.90;;;;;;5042948;28;20044;-68
2021/12/26 08:21:12;;;;;;;15.52;9.95;;;30.40;99.90;;;;;;5042134;28;20059;-68
2021/12/26 08:23:39;;;;;;;19.85;10.10;;;30.40;99.90;;;;;;5044823;28;20029;-69
2021/12/26 08:26:06;;;;;;;18.77;10.35;;;30.40;99.90;;;;;;5042346;28;20475;-67
2021/12/26 08:28:33;;;;;;;15.23;9.82;;;30.30;99.90;;;;;;5043663;28;20025;-68
2021/12/26 08:31:00;;;;;;;15.48;9.40;;;30.40;99.90;;;;;;5042131;28;20384;-68
2021/12/26 08:33:26;;;;;;;21.05;9.68;;;30.40;99.90;;;;;;5042492;28;20108;-69
2021/12/26 08:35:53;;;;;;;15.90;10.20;;;30.40;99.90;;;;;;5043913;28;20430;-69
2021/12/26 08:38:21;;;;;;;15.43;10.32;;;30.40;99.90;;;;;;5044554;28;20056;-68
2021/12/26 08:40:50;;;;;;;16.63;10.35;;;30.30;99.90;;;;;;5042115;28;20017;-68
2021/12/26 08:43:17;;;;;;;12.25;10.00;;;30.30;99.90;;;;;;5043805;28;20099;-69
2021/12/26 08:45:44;;;;;;;14.88;9.90;;;30.30;99.90;;;;;;5042610;28;20029;-69
2021/12/26 08:48:11;;;;;;;20.23;11.23;;;30.20;99.90;;;;;;5042014;28;20031;-69
2021/12/26 08:50:38;;;;;;;18.67;10.50;;;30.20;99.90;;;;;;5043908;28;20444;-67
2021/12/26 08:53:05;;;;;;;14.95;10.57;;;30.20;99.90;;;;;;5042118;28;20041;-69
2021/12/26 08:55:32;;;;;;;16.83;11.43;;;30.20;99.90;;;;;;5041605;28;20017;-68
2021/12/26 08:57:59;;;;;;;16.23;11.15;;;30.20;99.90;;;;;;5044478;28;20068;-68
2021/12/26 09:00:26;;;;;;;20.95;11.40;;;30.20;99.90;;;;;;5042810;28;20018;-68
2021/12/26 09:02:53;;;;;;;16.88;11.27;;;30.10;99.90;;;;;;5043376;28;20029;-69
2021/12/26 09:05:20;;;;;;;15.68;11.43;;;30.10;99.90;;;;;;5044519;28;20033;-68
2021/12/26 09:07:47;;;;;;;17.88;11.25;;;30.20;99.90;;;;;;5046374;28;20052;-67
2021/12/26 09:10:15;;;;;;;22.25;11.70;;;30.20;99.90;;;;;;5045189;28;20422;-69
2021/12/26 09:12:43;;;;;;;22.35;12.90;;;30.10;99.90;;;;;;5056741;28;20032;-69
2021/12/26 09:15:11;;;;;;;19.52;12.27;;;30.20;99.90;;;;;;5056816;28;20025;-68
2021/12/26 09:17:40;;;;;;;15.32;11.68;;;30.20;99.90;;;;;;5056277;28;20475;-68
2021/12/26 09:20:08;;;;;;;14.02;10.30;;;30.10;99.90;;;;;;5056726;28;20029;-68
2021/12/26 09:22:36;;;;;;;15.82;12.23;;;30.10;99.90;;;;;;5056557;28;20430;-68
2021/12/26 09:25:03;;;;;;;18.00;11.85;;;30.00;99.90;;;;;;5056159;28;20064;-68
2021/12/26 09:27:30;;;;;;;20.45;14.60;;;30.00;99.90;;;;;;5050418;28;20060;-68
2021/12/26 09:29:57;;;;;;;19.58;14.45;;;30.00;99.90;;;;;;5045029;28;20021;-69
2021/12/26 09:32:24;;;;;;;15.73;12.27;;;29.90;99.90;;;;;;5045909;28;20418;-68
2021/12/26 09:34:50;;;;;;;22.48;11.18;;;29.90;99.90;;;;;;5046575;28;20013;-68
2021/12/26 09:37:17;;;;;;;18.50;12.75;;;29.90;99.90;;;;;;5052297;28;20025;-68
2021/12/26 09:39:44;;;;;;;22.02;14.07;;;29.80;99.90;;;;;;5043739;28;20025;-68
2021/12/26 09:42:11;;;;;;;23.42;14.80;;;29.80;99.90;;;;;;5046992;28;20021;-68
2021/12/26 09:44:38;;;;;;;16.30;12.70;;;29.90;99.90;;;;;;5045346;28;20489;-68
2021/12/26 09:47:05;;;;;;;21.35;14.07;;;29.80;99.90;;;;;;5044913;28;20044;-68
2021/12/26 09:49:33;;;;;;;15.55;12.00;;;29.80;99.90;;;;;;5046736;28;20032;-68
2021/12/26 09:51:59;;;;;;;15.88;10.70;;;29.70;99.90;;;;;;5042729;28;20049;-68
2021/12/26 09:54:26;;;;;;;43.53;20.05;;;29.70;99.90;;;;;;5044062;28;20112;-68
2021/12/26 09:56:53;;;;;;;24.40;18.20;;;29.70;99.90;;;;;;5044781;28;20128;-69
2021/12/26 09:59:22;;;;;;;21.17;13.65;;;29.70;99.90;;;;;;5045230;28;20479;-68
2021/12/26 10:01:52;;;;;;;17.40;12.55;;;29.70;99.90;;;;;;5046641;28;20028;-68
2021/12/26 10:04:21;;;;;;;18.25;12.23;;;29.70;99.90;;;;;;5048551;28;20052;-68
2021/12/26 10:06:52;;;;;;;21.38;13.85;;;29.70;99.90;;;;;;5043905;28;20060;-68
2021/12/26 10:09:21;;;;;;;20.40;14.32;;;29.70;99.90;;;;;;5046544;28;20506;-68
2021/12/26 10:11:50;;;;;;;20.58;11.02;;;29.70;99.90;;;;;;5041578;28;20079;-67
2021/12/26 10:14:24;;;;;;;22.05;12.15;;;29.60;99.90;;;;;;5037677;28;20033;-68
2021/12/26 10:16:53;;;;;;;21.33;12.32;;;29.60;99.90;;;;;;5049819;28;20079;-68
2021/12/26 10:19:20;;;;;;;19.73;12.25;;;29.60;99.90;;;;;;5052597;28;20029;-67
2021/12/26 10:21:51;;;;;;;20.10;12.02;;;29.50;99.90;;;;;;5053766;28;20089;-69
2021/12/26 10:24:23;;;;;;;16.48;11.68;;;29.50;99.90;;;;;;5042802;28;20037;-69
2021/12/26 10:26:53;;;;;;;22.83;12.43;;;29.50;99.90;;;;;;5040125;28;20117;-68
2021/12/26 10:29:28;;;;;;;19.80;13.02;;;29.50;99.90;;;;;;5035225;28;20103;-69
2021/12/26 10:31:57;;;;;;;23.45;13.30;;;29.50;99.90;;;;;;5054635;28;20044;-68
2021/12/26 10:34:27;;;;;;;21.27;12.38;;;29.50;99.90;;;;;;5054811;28;20029;-70
2021/12/26 10:36:56;;;;;;;21.45;13.75;;;29.50;99.90;;;;;;5054788;28;20025;-69
2021/12/26 10:39:27;;;;;;;26.25;16.33;;;29.50;99.90;;;;;;5054973;28;20059;-68
2021/12/26 10:41:58;;;;;;;30.80;14.47;;;29.50;99.90;;;;;;5055050;28;20025;-69
2021/12/26 10:44:32;;;;;;;23.17;16.15;;;29.40;99.90;;;;;;5054933;28;20056;-70
2021/12/26 10:47:05;;;;;;;44.25;27.73;;;29.40;99.90;;;;;;5054752;28;20051;-70
2021/12/26 10:49:37;;;;;;;188.55;130.45;;;29.30;99.90;;;;;;5053886;28;20033;-68
2021/12/26 10:52:13;;;;;;;28.77;20.83;;;29.30;99.90;;;;;;5051599;28;20388;-68
2021/12/26 11:52:23;;;;;;;50.13;34.78;;;28.30;99.90;;;;;;4990098;28;20413;-69
2021/12/26 11:55:13;;;;;;;39.55;25.17;;;29.00;99.90;;;;;;4970390;28;20094;-70
2021/12/26 11:57:54;;;;;;;56.55;39.15;;;28.90;99.90;;;;;;4968576;28;20031;-71
2021/12/26 12:00:35;;;;;;;64.40;39.75;;;28.90;99.90;;;;;;4968894;28;20027;-68
2021/12/26 12:03:06;;;;;;;58.92;36.63;;;28.80;99.90;;;;;;4973601;28;20042;-69
2021/12/26 12:05:39;;;;;;;267.33;219.25;;;28.70;99.90;;;;;;4972248;28;20422;-70
2021/12/26 12:08:12;;;;;;;74.15;43.60;;;28.80;99.90;;;;;;4972138;28;20371;-70
2021/12/26 12:10:45;;;;;;;67.75;43.33;;;28.70;99.90;;;;;;4972743;28;20047;-68
2021/12/26 12:13:23;;;;;;;71.95;40.40;;;28.70;99.90;;;;;;4970599;28;20019;-69
2021/12/26 12:15:51;;;;;;;70.97;48.95;;;28.70;99.90;;;;;;4973819;28;20050;-68
2021/12/26 12:18:22;;;;;;;302.92;214.77;;;28.70;99.90;;;;;;4978798;28;20077;-69
2021/12/26 12:21:08;;;;;;;100.63;67.35;;;28.70;99.90;;;;;;4973043;28;20106;-68
2021/12/26 12:23:39;;;;;;;110.10;84.93;;;28.60;99.90;;;;;;4967753;28;20425;-66
2021/12/26 12:26:05;;;;;;;116.15;69.20;;;28.60;99.90;;;;;;4970162;28;20050;-68
2021/12/26 12:28:41;;;;;;;76.97;49.63;;;28.50;99.90;;;;;;4971302;28;20034;-67
2021/12/26 12:31:08;;;;;;;72.18;46.17;;;28.60;99.90;;;;;;4970919;28;20089;-68
2021/12/26 12:33:38;;;;;;;63.33;42.28;;;28.60;99.90;;;;;;4972659;28;20034;-65
2021/12/26 12:36:08;;;;;;;78.82;44.80;;;28.60;99.90;;;;;;4967631;28;20102;-67
2021/12/26 12:38:42;;;;;;;63.30;39.78;;;28.50;99.90;;;;;;4968526;28;20023;-65
2021/12/26 12:41:32;;;;;;;77.63;42.45;;;28.50;99.90;;;;;;4964496;28;20043;-69
2021/12/26 12:44:21;;;;;;;76.95;41.30;;;28.40;99.90;;;;;;4954600;28;20098;-69
2021/12/26 12:47:05;;;;;;;69.63;40.72;;;28.40;99.90;;;;;;4951911;28;20390;-71
2021/12/26 12:49:44;;;;;;;70.45;38.35;;;28.40;99.90;;;;;;4964696;28;20034;-68
2021/12/26 12:52:42;;;;;;;70.35;43.17;;;28.40;99.90;;;;;;4949839;28;20057;-69
2021/12/26 12:55:19;;;;;;;80.38;48.65;;;28.40;99.90;;;;;;4944350;29;20028;-69
2021/12/26 12:57:52;;;;;;;61.92;36.38;;;28.40;99.90;;;;;;4946859;28;20035;-67
2021/12/26 13:00:38;;;;;;;56.47;35.38;;;28.40;99.90;;;;;;4954073;28;20085;-66
2021/12/26 13:03:05;;;;;;;73.63;39.60;;;28.40;99.90;;;;;;4954655;29;20114;-69
2021/12/26 13:05:36;;;;;;;66.35;38.25;;;28.40;99.90;;;;;;4947643;28;20028;-67
2021/12/26 13:08:07;;;;;;;60.50;36.70;;;28.30;99.90;;;;;;4946568;29;20035;-67
2021/12/26 13:10:34;;;;;;;58.75;36.85;;;28.30;99.90;;;;;;4954981;29;20023;-69
2021/12/26 13:13:08;;;;;;;59.20;36.83;;;28.30;99.90;;;;;;4947940;28;20058;-68
2021/12/26 13:15:47;;;;;;;58.55;36.22;;;28.30;99.90;;;;;;4949479;29;20359;-68
2021/12/26 13:20:15;;;;;;;59.08;37.10;;;28.30;99.90;;;;;;5090463;27;20893;-67
2021/12/26 13:22:56;;;;;;;61.58;37.63;;;28.20;99.90;;;;;;5077747;28;20120;-70
2021/12/26 13:25:34;;;;;;;69.03;36.03;;;28.20;99.90;;;;;;5078446;28;20024;-68
2021/12/26 13:28:09;;;;;;;61.25;36.17;;;28.20;99.90;;;;;;5080241;28;20484;-67
2021/12/26 13:30:39;;;;;;;48.40;32.28;;;28.30;99.90;;;;;;5079973;28;20042;-69
2021/12/26 13:33:15;;;;;;;55.88;33.78;;;28.20;99.90;;;;;;5080299;28;20436;-68
2021/12/26 13:35:42;;;;;;;52.30;32.30;;;28.20;99.90;;;;;;5080360;28;20111;-68
2021/12/26 13:38:09;;;;;;;47.63;31.08;;;28.20;99.90;;;;;;5081062;28;20012;-68
2021/12/26 13:40:39;;;;;;;47.05;29.60;;;28.20;99.90;;;;;;5074556;28;20128;-68